»·PEaware :: N24W KLGB-KSNA

N24W :: KLGB-KSNA

FLIGHT INFORMATION

Flight Status: Arrived
Operator: Privately registered:
United States
More flights under this callsign
Pilot: Mark R. (11809)
Aircraft: CESSNA 550 CITATION 2/S2/BRAVO
(C550)
More flights by this aircraft type
Origin: KLGB Long Beach
United States
Destination: KSNA John Wayne-Orange Co
United States
More flights between these airports :: More routes between these airports
Route: SLI
File this flight plan on PilotEdge
Remarks:
Altitude:
(Current/Filed)
5,000ft
Speed:
(Current/Filed)
200kts
Departed: 11-Oct-18 08:07 AM
Arrived: 11-Oct-18 08:25 AM
Distance/Time
Traveled:
16nm/0:18
Distance/Time
To Go:
Arrived

Flight Plot

Page will automatically refresh every two minutes.


Map Options




Map Legend


Flown Route
Filed Route
Departure Airport
Arrival Airport
Navaid (VOR, NDB)
Fix

Horizontal Profiles

Position Reports

Time Latitude Longitude Heading Altitude Ground
Speed
11-Oct-18 07:32 33.812389 -118.151199 0 49ft 0kts
11-Oct-18 07:33 33.812389 -118.151199 0 49ft 0kts
11-Oct-18 07:34 33.812389 -118.151199 0 49ft 0kts
11-Oct-18 07:35 33.812389 -118.151199 0 49ft 0kts
11-Oct-18 07:36 33.812389 -118.151199 0 49ft 0kts
11-Oct-18 07:37 33.812389 -118.151199 0 49ft 0kts
11-Oct-18 07:38 33.812389 -118.151199 0 49ft 0kts
11-Oct-18 07:39 33.812389 -118.151199 0 49ft 0kts
11-Oct-18 07:40 33.812389 -118.151199 0 49ft 0kts
11-Oct-18 07:41 33.812389 -118.151199 0 49ft 0kts
11-Oct-18 07:42 33.812389 -118.151199 0 49ft 0kts
11-Oct-18 07:43 33.812389 -118.151199 0 49ft 0kts
11-Oct-18 07:44 33.812389 -118.151199 0 49ft 0kts
11-Oct-18 07:45 33.812389 -118.151199 0 49ft 0kts
11-Oct-18 07:46 33.812389 -118.151199 0 49ft 0kts
11-Oct-18 07:47 33.812389 -118.151199 0 49ft 0kts
11-Oct-18 07:53 33.812416 -118.151169 0 49ft 0kts
11-Oct-18 07:54 33.812416 -118.151169 0 49ft 0kts
11-Oct-18 07:55 33.812416 -118.151169 0 49ft 0kts
11-Oct-18 07:56 33.812416 -118.151169 0 49ft 0kts
11-Oct-18 07:57 33.812416 -118.151169 0 49ft 0kts
11-Oct-18 07:58 33.812416 -118.151169 0 49ft 0kts
11-Oct-18 07:59 33.812416 -118.151169 0 49ft 0kts
11-Oct-18 08:00 33.812416 -118.151169 0 49ft 0kts
11-Oct-18 08:01 33.812416 -118.151169 0 49ft 0kts
11-Oct-18 08:02 33.812416 -118.151169 0 49ft 0kts
11-Oct-18 08:03 33.812416 -118.151169 0 49ft 0kts
11-Oct-18 08:04 33.812416 -118.151169 0 49ft 0kts
11-Oct-18 08:05 33.812819 -118.151166 2 49ft 5kts
11-Oct-18 08:06 33.813089 -118.148496 89 49ft 6kts
11-Oct-18 08:07 33.812471 -118.146716 131 48ft 6kts
11-Oct-18 08:08 33.811322 -118.145171 131 47ft 3kts
11-Oct-18 08:09 33.815800 -118.148939 314 51ft 105kts
11-Oct-18 08:10 33.828251 -118.182636 225 2414ft 137kts
11-Oct-18 08:11 33.783341 -118.197908 193 4172ft 199kts
11-Oct-18 08:12 33.728798 -118.195233 117 4994ft 218kts
11-Oct-18 08:13 33.737946 -118.125238 74 4994ft 202kts
11-Oct-18 08:14 33.751818 -118.060761 74 5003ft 203kts
11-Oct-18 08:15 33.766375 -117.994218 74 4998ft 203kts
11-Oct-18 08:16 33.780805 -117.929350 74 4999ft 199kts
11-Oct-18 08:17 33.800229 -117.869084 33 4986ft 195kts
11-Oct-18 08:18 33.849094 -117.840932 23 3878ft 190kts
11-Oct-18 08:19 33.886396 -117.804303 100 2990ft 186kts
11-Oct-18 08:20 33.867314 -117.750280 113 3002ft 177kts
11-Oct-18 08:21 33.832924 -117.727191 230 2989ft 180kts
11-Oct-18 08:22 33.808571 -117.778334 219 2833ft 172kts
11-Oct-18 08:23 33.769002 -117.808764 209 1967ft 165kts
11-Oct-18 08:24 33.736218 -117.830326 207 1230ft 121kts
11-Oct-18 08:25 33.707417 -117.848649 207 623ft 114kts
11-Oct-18 08:26 33.679706 -117.866280 207 39ft 100kts
11-Oct-18 08:27 33.672072 -117.872359 255 39ft 0kts
11-Oct-18 08:28 33.672029 -117.872593 259 39ft 6kts
11-Oct-18 08:29 33.672445 -117.873516 36 43ft 0kts

Navigation Log

Ident Type
Flight plan parsing failed, navigation log unavailable